Time;durP1;ratioP1;P1;durP2;ratioP2;P2;SDS_P1;SDS_P2;PMS_P1;PMS_P2;Temp;Humidity;BMP_temperature;BMP_pressure;BME280_temperature;BME280_humidity;BME280_pressure;Samples;Min_cycle;Max_cycle;Signal;HPM_P1;HPM_P2
2021/01/14 00:02:22;;;;;;;;;;;;;;;;;;5071966;28;20384;-88
2021/01/14 00:04:48;;;;;;;;;;;;;;;;;;5065377;28;20384;-87
2021/01/14 00:10:01;;;;;;;;;;;;;;;;;;5045002;28;20359;-90
2021/01/14 00:12:28;;;;;;;;;;;;;;;;;;5058702;28;20414;-89
2021/01/14 00:14:54;;;;;;;;;;;;;;;;;;5062914;28;20408;-89
2021/01/14 00:17:21;;;;;;;;;;;;;;;;;;5061355;28;20374;-89
2021/01/14 00:19:47;;;;;;;;;;;;;;;;;;5079308;28;20383;-89
2021/01/14 00:22:13;;;;;;;;;;;;;;;;;;5078386;28;20388;-88
2021/01/14 00:24:40;;;;;;;;;;;;;;;;;;5077564;28;20442;-88
2021/01/14 00:27:06;;;;;;;;;;;;;;;;;;5064074;28;20860;-88
2021/01/14 00:29:33;;;;;;;;;;;;;;;;;;5060673;28;20469;-88
2021/01/14 00:31:59;;;;;;;;;;;;;;;;;;5062680;28;20414;-88
2021/01/14 00:34:26;;;;;;;;;;;;;;;;;;5049666;28;20394;-89
2021/01/14 00:39:37;;;;;;;;;;;;;;;;;;5061129;28;20386;-88
2021/01/14 00:42:03;;;;;;;;;;;;;;;;;;5073203;28;20388;-89
2021/01/14 00:44:30;;;;;;;;;;;;;;;;;;5056735;28;20394;-88
2021/01/14 00:46:56;;;;;;;;;;;;;;;;;;5050580;28;20389;-88
2021/01/14 00:49:23;;;;;;;;;;;;;;;;;;5072219;28;20413;-89
2021/01/14 00:51:49;;;;;;;;;;;;;;;;;;5074596;28;20396;-88
2021/01/14 00:54:16;;;;;;;;;;;;;;;;;;5075011;28;20375;-87
2021/01/14 00:56:42;;;;;;;;;;;;;;;;;;5069744;28;20400;-86
2021/01/14 00:59:08;;;;;;;;;;;;;;;;;;5060118;28;20416;-87
2021/01/14 01:01:35;;;;;;;;;;;;;;;;;;5059126;28;20399;-87
2021/01/14 01:04:01;;;;;;;;;;;;;;;;;;5051153;28;20402;-87
2021/01/14 01:06:28;;;;;;;;;;;;;;;;;;5057946;28;20384;-87
2021/01/14 01:08:54;;;;;;;;;;;;;;;;;;5051298;28;20775;-87
2021/01/14 01:11:20;;;;;;;;;;;;;;;;;;5059888;28;20394;-87
2021/01/14 01:13:47;;;;;;;;;;;;;;;;;;5057246;28;20386;-86
2021/01/14 01:16:13;;;;;;;;;;;;;;;;;;5059040;28;20390;-86
2021/01/14 01:18:40;;;;;;;;;;;;;;;;;;5054361;28;20419;-86
2021/01/14 01:21:06;;;;;;;;;;;;;;;;;;5039781;28;20398;-88
2021/01/14 01:23:32;;;;;;;;;;;;;;;;;;5043825;28;20386;-87
2021/01/14 01:25:59;;;;;;;;;;;;;;;;;;5043333;28;20383;-87
2021/01/14 01:28:25;;;;;;;;;;;;;;;;;;5056216;28;20461;-87
2021/01/14 01:30:52;;;;;;;;;;;;;;;;;;5064338;28;20395;-87
2021/01/14 01:33:18;;;;;;;;;;;;;;;;;;5057775;28;20411;-88
2021/01/14 01:35:44;;;;;;;;;;;;;;;;;;5064578;28;20391;-88
2021/01/14 01:38:11;;;;;;;;;;;;;;;;;;5073641;28;20407;-86
2021/01/14 01:40:37;;;;;;;;;;;;;;;;;;5067889;28;20733;-86
2021/01/14 01:43:04;;;;;;;;;;;;;;;;;;5048730;28;20395;-89
2021/01/14 01:45:30;;;;;;;;;;;;;;;;;;5097079;22;20376;-85
2021/01/14 01:47:56;;;;;;;;;;;;;;;;;;5020352;28;20409;-85
2021/01/14 01:50:23;;;;;;;;;;;;;;;;;;5037547;28;20765;-85
2021/01/14 01:52:49;;;;;;;;;;;;;;;;;;5037354;28;20406;-84
2021/01/14 01:55:16;;;;;;;;;;;;;;;;;;5033914;28;20472;-84
2021/01/14 01:57:42;;;;;;;;;;;;;;;;;;5017810;28;20849;-84
2021/01/14 02:00:08;;;;;;;;;;;;;;;;;;5017837;28;20404;-84
2021/01/14 02:02:35;;;;;;;;;;;;;;;;;;5018469;28;20428;-84
2021/01/14 02:05:01;;;;;;;;;;;;;;;;;;5018569;28;20392;-84
2021/01/14 02:07:27;;;;;;;;;;;;;;;;;;5018210;28;20440;-84
2021/01/14 02:09:54;;;;;;;;;;;;;;;;;;5018080;28;20744;-84
2021/01/14 02:12:20;;;;;;;;;;;;;;;;;;5018831;28;20417;-84
2021/01/14 02:14:46;;;;;;;;;;;;;;;;;;5019725;28;20436;-85
2021/01/14 02:17:13;;;;;;;;;;;;;;;;;;5019230;28;20416;-84
2021/01/14 02:19:39;;;;;;;;;;;;;;;;;;5018504;28;20745;-83
2021/01/14 02:22:06;;;;;;;;;;;;;;;;;;5026883;28;20385;-85
2021/01/14 02:24:32;;;;;;;;;;;;;;;;;;5038102;28;20868;-84
2021/01/14 02:26:58;;;;;;;;;;;;;;;;;;5018344;28;20436;-84
2021/01/14 02:29:25;;;;;;;;;;;;;;;;;;5017116;28;20393;-84
2021/01/14 02:31:51;;;;;;;;;;;;;;;;;;5016767;28;20484;-84
2021/01/14 02:34:18;;;;;;;;;;;;;;;;;;5017408;28;20409;-84
2021/01/14 02:36:44;;;;;;;;;;;;;;;;;;5016864;28;20754;-84
2021/01/14 02:39:10;;;;;;;;;;;;;;;;;;5017413;28;20405;-84
2021/01/14 02:41:37;;;;;;;;;;;;;;;;;;5016728;28;20431;-85
2021/01/14 02:44:03;;;;;;;;;;;;;;;;;;5018044;28;20878;-84
2021/01/14 02:46:29;;;;;;;;;;;;;;;;;;5017151;28;20416;-83
2021/01/14 02:48:56;;;;;;;;;;;;;;;;;;5017693;28;20402;-83
2021/01/14 02:51:22;;;;;;;;;;;;;;;;;;5016775;28;20397;-83
2021/01/14 02:53:48;;;;;;;;;;;;;;;;;;5017558;28;20423;-83
2021/01/14 02:56:15;;;;;;;;;;;;;;;;;;5016475;28;20413;-83
2021/01/14 02:58:41;;;;;;;;;;;;;;;;;;5016576;28;20393;-82
2021/01/14 03:01:08;;;;;;;;;;;;;;;;;;5016682;28;20393;-82
2021/01/14 03:03:34;;;;;;;;;;;;;;;;;;5017498;28;20401;-82
2021/01/14 03:06:00;;;;;;;;;;;;;;;;;;5016054;28;20897;-82
2021/01/14 03:08:27;;;;;;;;;;;;;;;;;;5031760;28;20554;-82
2021/01/14 03:10:53;;;;;;;;;;;;;;;;;;5038981;28;20370;-82
2021/01/14 03:13:19;;;;;;;;;;;;;;;;;;5029860;28;20421;-82
2021/01/14 03:15:46;;;;;;;;;;;;;;;;;;5016433;28;20902;-83
2021/01/14 03:18:12;;;;;;;;;;;;;;;;;;5016443;28;20463;-83
2021/01/14 03:20:38;;;;;;;;;;;;;;;;;;5017128;28;20397;-83
2021/01/14 03:23:05;;;;;;;;;;;;;;;;;;5017187;28;20396;-83
2021/01/14 03:25:31;;;;;;;;;;;;;;;;;;5017177;28;20390;-83
2021/01/14 03:27:58;;;;;;;;;;;;;;;;;;5016508;28;20925;-83
2021/01/14 03:30:24;;;;;;;;;;;;;;;;;;5021873;28;20394;-82
2021/01/14 03:32:51;;;;;;;;;;;;;;;;;;5016989;28;20410;-83
2021/01/14 03:35:17;;;;;;;;;;;;;;;;;;5017117;28;20448;-83
2021/01/14 03:37:43;;;;;;;;;;;;;;;;;;5016858;28;20762;-82
2021/01/14 03:40:10;;;;;;;;;;;;;;;;;;5016873;28;20405;-83
2021/01/14 03:42:36;;;;;;;;;;;;;;;;;;5016624;28;20386;-83
2021/01/14 03:45:03;;;;;;;;;;;;;;;;;;5016270;28;20472;-83
2021/01/14 03:47:29;;;;;;;;;;;;;;;;;;5016476;28;20425;-83
2021/01/14 03:49:55;;;;;;;;;;;;;;;;;;5024614;28;20386;-82
2021/01/14 03:52:22;;;;;;;;;;;;;;;;;;5038716;28;20397;-81
2021/01/14 03:54:48;;;;;;;;;;;;;;;;;;5021870;28;20448;-82
2021/01/14 03:57:15;;;;;;;;;;;;;;;;;;5016458;28;20414;-83
2021/01/14 03:59:41;;;;;;;;;;;;;;;;;;5016206;28;20762;-83
2021/01/14 04:02:08;;;;;;;;;;;;;;;;;;5016891;28;20401;-83
2021/01/14 04:04:34;;;;;;;;;;;;;;;;;;5016238;28;20851;-82
2021/01/14 04:07:00;;;;;;;;;;;;;;;;;;5017104;28;20422;-82
2021/01/14 04:09:27;;;;;;;;;;;;;;;;;;5029239;28;20389;-83
2021/01/14 04:11:53;;;;;;;;;;;;;;;;;;5031728;28;20467;-83
2021/01/14 04:14:20;;;;;;;;;;;;;;;;;;5016975;28;20977;-83
2021/01/14 04:16:47;;;;;;;;;;;;;;;;;;5017234;28;20505;-83
2021/01/14 04:19:13;;;;;;;;;;;;;;;;;;5036519;28;20400;-83
2021/01/14 04:21:39;;;;;;;;;;;;;;;;;;5024075;28;20916;-83
2021/01/14 04:24:06;;;;;;;;;;;;;;;;;;5016293;28;20425;-83
2021/01/14 04:26:32;;;;;;;;;;;;;;;;;;5015959;28;20428;-83
2021/01/14 04:28:59;;;;;;;;;;;;;;;;;;5016800;28;20398;-83
2021/01/14 04:31:25;;;;;;;;;;;;;;;;;;5016942;28;20393;-83
2021/01/14 04:33:51;;;;;;;;;;;;;;;;;;5017122;28;20890;-83
2021/01/14 04:36:18;;;;;;;;;;;;;;;;;;5016915;28;20500;-83
2021/01/14 04:38:44;;;;;;;;;;;;;;;;;;5016803;28;20544;-83
2021/01/14 04:41:11;;;;;;;;;;;;;;;;;;5016709;28;20485;-84
2021/01/14 04:43:37;;;;;;;;;;;;;;;;;;5016862;28;20394;-84
2021/01/14 04:46:04;;;;;;;;;;;;;;;;;;5032166;28;20398;-82
2021/01/14 04:48:30;;;;;;;;;;;;;;;;;;5034965;28;20394;-83
2021/01/14 04:50:57;;;;;;;;;;;;;;;;;;5016459;28;20409;-83
2021/01/14 04:53:23;;;;;;;;;;;;;;;;;;5015513;28;20871;-82
2021/01/14 04:55:51;;;;;;;;;;;;;;;;;;5016095;28;20417;-83
2021/01/14 04:58:17;;;;;;;;;;;;;;;;;;5019233;28;20390;-82
2021/01/14 05:00:44;;;;;;;;;;;;;;;;;;5020147;28;20451;-85
2021/01/14 05:03:10;;;;;;;;;;;;;;;;;;5020059;28;20397;-83
2021/01/14 05:05:37;;;;;;;;;;;;;;;;;;5018902;28;20497;-83
2021/01/14 05:08:03;;;;;;;;;;;;;;;;;;5019482;28;20396;-82
2021/01/14 05:10:29;;;;;;;;;;;;;;;;;;5019084;28;22522;-83
2021/01/14 05:12:56;;;;;;;;;;;;;;;;;;5019466;28;20413;-84
2021/01/14 05:15:22;;;;;;;;;;;;;;;;;;5019156;28;20477;-84
2021/01/14 05:17:48;;;;;;;;;;;;;;;;;;5018838;28;20405;-84
2021/01/14 05:20:15;;;;;;;;;;;;;;;;;;5018938;28;20794;-84
2021/01/14 05:22:41;;;;;;;;;;;;;;;;;;5018750;28;20391;-84
2021/01/14 05:25:07;;;;;;;;;;;;;;;;;;5019305;28;20393;-85
2021/01/14 05:27:34;;;;;;;;;;;;;;;;;;5020354;28;20405;-84
2021/01/14 05:30:00;;;;;;;;;;;;;;;;;;5024334;28;20374;-86
2021/01/14 05:32:26;;;;;;;;;;;;;;;;;;5038340;28;20416;-85
2021/01/14 05:34:53;;;;;;;;;;;;;;;;;;5021683;28;20433;-85
2021/01/14 05:37:19;;;;;;;;;;;;;;;;;;5019852;28;20416;-85
2021/01/14 05:39:46;;;;;;;;;;;;;;;;;;5019277;28;20734;-84
2021/01/14 05:42:12;;;;;;;;;;;;;;;;;;5020212;28;20436;-86
2021/01/14 05:44:38;;;;;;;;;;;;;;;;;;5020820;28;20390;-85
2021/01/14 05:47:05;;;;;;;;;;;;;;;;;;5020839;28;20900;-85
2021/01/14 05:49:31;;;;;;;;;;;;;;;;;;5021457;28;20419;-83
2021/01/14 05:51:57;;;;;;;;;;;;;;;;;;5020420;28;20389;-83
2021/01/14 05:54:24;;;;;;;;;;;;;;;;;;5021957;28;20385;-83
2021/01/14 05:56:50;;;;;;;;;;;;;;;;;;5035067;28;20410;-85
2021/01/14 05:59:17;;;;;;;;;;;;;;;;;;5030390;28;20385;-83
2021/01/14 06:01:43;;;;;;;;;;;;;;;;;;5021423;28;20471;-82
2021/01/14 06:04:09;;;;;;;;;;;;;;;;;;5021756;28;20386;-83
2021/01/14 06:06:36;;;;;;;;;;;;;;;;;;5021000;28;20418;-85
2021/01/14 06:09:02;;;;;;;;;;;;;;;;;;5021013;28;20408;-83
2021/01/14 06:11:28;;;;;;;;;;;;;;;;;;5021409;28;20389;-84
2021/01/14 06:13:55;;;;;;;;;;;;;;;;;;5022340;28;20417;-84
2021/01/14 06:16:21;;;;;;;;;;;;;;;;;;5020958;28;20401;-85
2021/01/14 06:18:48;;;;;;;;;;;;;;;;;;5020582;28;20401;-85
2021/01/14 06:21:14;;;;;;;;;;;;;;;;;;5020264;28;20390;-84
2021/01/14 06:23:40;;;;;;;;;;;;;;;;;;5018449;28;20448;-82
2021/01/14 06:26:07;;;;;;;;;;;;;;;;;;5018061;28;20905;-84
2021/01/14 06:28:33;;;;;;;;;;;;;;;;;;5017804;28;20400;-83
2021/01/14 06:31:01;;;;;;;;;;;;;;;;;;5017860;28;20393;-84
2021/01/14 06:33:28;;;;;;;;;;;;;;;;;;5018243;28;20975;-84
2021/01/14 06:35:54;;;;;;;;;;;;;;;;;;5019155;28;20444;-84
2021/01/14 06:38:20;;;;;;;;;;;;;;;;;;5018678;28;20408;-84
2021/01/14 06:40:47;;;;;;;;;;;;;;;;;;5017825;28;20397;-84
2021/01/14 06:43:13;;;;;;;;;;;;;;;;;;5018353;28;20753;-84
2021/01/14 06:45:39;;;;;;;;;;;;;;;;;;5017893;28;20414;-84
2021/01/14 06:48:06;;;;;;;;;;;;;;;;;;5018374;28;20374;-84
2021/01/14 06:50:32;;;;;;;;;;;;;;;;;;5018255;28;20745;-84
2021/01/14 06:52:59;;;;;;;;;;;;;;;;;;5018638;28;20413;-85
2021/01/14 06:55:25;;;;;;;;;;;;;;;;;;5018240;28;20385;-84
2021/01/14 06:57:52;;;;;;;;;;;;;;;;;;5018957;28;20448;-83
2021/01/14 07:00:18;;;;;;;;;;;;;;;;;;5019562;28;20452;-84
2021/01/14 07:02:44;;;;;;;;;;;;;;;;;;5022496;28;20440;-85
2021/01/14 07:05:11;;;;;;;;;;;;;;;;;;5023194;28;20386;-87
2021/01/14 07:07:40;;;;;;;;;;;;;;;;;;5020274;28;20929;-84
2021/01/14 07:10:07;;;;;;;;;;;;;;;;;;5018827;28;20865;-85
2021/01/14 07:12:33;;;;;;;;;;;;;;;;;;5020643;28;20463;-84
2021/01/14 07:14:59;;;;;;;;;;;;;;;;;;5020225;28;20469;-84
2021/01/14 07:17:26;;;;;;;;;;;;;;;;;;5020385;28;20405;-84
2021/01/14 07:19:52;;;;;;;;;;;;;;;;;;5022636;28;20389;-84
2021/01/14 07:22:18;;;;;;;;;;;;;;;;;;5023193;28;20408;-84
2021/01/14 07:24:46;;;;;;;;;;;;;;;;;;5025310;28;20394;-84
2021/01/14 07:27:12;;;;;;;;;;;;;;;;;;5024731;28;20413;-84
2021/01/14 07:29:38;;;;;;;;;;;;;;;;;;5025769;28;20396;-84
2021/01/14 07:32:05;;;;;;;;;;;;;;;;;;5024719;28;20455;-84
2021/01/14 07:34:31;;;;;;;;;;;;;;;;;;5018500;28;20396;-84
2021/01/14 07:36:57;;;;;;;;;;;;;;;;;;5017621;28;20405;-84
2021/01/14 07:39:24;;;;;;;;;;;;;;;;;;5017132;28;20412;-84
2021/01/14 07:41:50;;;;;;;;;;;;;;;;;;5022304;28;20377;-84
2021/01/14 07:44:17;;;;;;;;;;;;;;;;;;5039246;28;20392;-86
2021/01/14 07:46:43;;;;;;;;;;;;;;;;;;5046454;23;20968;-85
2021/01/14 07:49:09;;;;;;;;;;;;;;;;;;5044722;28;20384;-85
2021/01/14 07:51:39;;;;;;;;;;;;;;;;;;5048993;28;20387;-86
2021/01/14 07:54:06;;;;;;;;;;;;;;;;;;5038451;28;20433;-87
2021/01/14 07:56:32;;;;;;;;;;;;;;;;;;5038696;28;20414;-87
2021/01/14 07:58:58;;;;;;;;;;;;;;;;;;5038552;28;20444;-86
2021/01/14 08:01:28;;;;;;;;;;;;;;;;;;5041900;28;20901;-84
2021/01/14 08:03:54;;;;;;;;;;;;;;;;;;5049823;28;20402;-82
2021/01/14 08:06:22;;;;;;;;;;;;;;;;;;5038067;28;20486;-87
2021/01/14 08:08:48;;;;;;;;;;;;;;;;;;5038568;28;20398;-87
2021/01/14 08:11:16;;;;;;;;;;;;;;;;;;5048699;28;20397;-87
2021/01/14 08:13:42;;;;;;;;;;;;;;;;;;5039238;28;20409;-87
2021/01/14 08:16:09;;;;;;;;;;;;;;;;;;5044503;28;20399;-89
2021/01/14 08:18:35;;;;;;;;;;;;;;;;;;5064711;28;20410;-86
2021/01/14 08:21:01;;;;;;;;;;;;;;;;;;5060309;28;20393;-85
2021/01/14 08:23:28;;;;;;;;;;;;;;;;;;5055975;28;20385;-85
2021/01/14 08:25:54;;;;;;;;;;;;;;;;;;5068725;28;20372;-85
2021/01/14 08:28:21;;;;;;;;;;;;;;;;;;5073428;28;20439;-85
2021/01/14 08:30:47;;;;;;;;;;;;;;;;;;5058843;28;20370;-87
2021/01/14 08:33:21;;;;;;;;;;;;;;;;;;5069045;28;20469;-88
2021/01/14 08:38:32;;;;;;;;;;;;;;;;;;5050893;28;20362;-90
2021/01/14 08:43:45;;;;;;;;;;;;;;;;;;5050046;28;20366;-88
2021/01/14 08:46:11;;;;;;;;;;;;;;;;;;5060817;28;20430;-90
2021/01/14 08:48:38;;;;;;;;;;;;;;;;;;5061866;28;20406;-89
2021/01/14 08:51:04;;;;;;;;;;;;;;;;;;5050056;28;20421;-87
2021/01/14 08:53:31;;;;;;;;;;;;;;;;;;5053372;28;20396;-86
2021/01/14 08:55:58;;;;;;;;;;;;;;;;;;5065440;28;20418;-86
2021/01/14 08:58:24;;;;;;;;;;;;;;;;;;5062866;28;20389;-87
2021/01/14 09:00:51;;;;;;;;;;;;;;;;;;5076406;28;20387;-86
2021/01/14 09:03:18;;;;;;;;;;;;;;;;;;5078753;28;20395;-85
2021/01/14 09:05:44;;;;;;;;;;;;;;;;;;5059848;28;20473;-86
2021/01/14 09:08:26;;;;;;;;;;;;;;;;;;5077907;28;20383;-85
2021/01/14 09:10:52;;;;;;;;;;;;;;;;;;5074968;28;20437;-87
2021/01/14 09:18:48;;;;;;;;;;;;;;;;;;5073258;28;20463;-88
2021/01/14 09:21:15;;;;;;;;;;;;;;;;;;5056612;28;20391;-88
2021/01/14 09:23:46;;;;;;;;;;;;;;;;;;5052179;28;20383;-89
2021/01/14 09:26:12;;;;;;;;;;;;;;;;;;5051548;28;20456;-88
2021/01/14 09:28:38;;;;;;;;;;;;;;;;;;5053602;28;20450;-88
2021/01/14 09:31:05;;;;;;;;;;;;;;;;;;5041559;28;20383;-88
2021/01/14 09:33:31;;;;;;;;;;;;;;;;;;5054434;28;20413;-89
2021/01/14 09:36:04;;;;;;;;;;;;;;;;;;5038808;28;20467;-89
2021/01/14 09:38:30;;;;;;;;;;;;;;;;;;5047534;28;20455;-88
2021/01/14 09:41:04;;;;;;;;;;;;;;;;;;5056562;28;20380;-87
2021/01/14 09:43:31;;;;;;;;;;;;;;;;;;5061935;28;20383;-87
2021/01/14 09:46:10;;;;;;;;;;;;;;;;;;5065566;28;20380;-85
2021/01/14 09:48:38;;;;;;;;;;;;;;;;;;5046207;28;20855;-85
2021/01/14 09:51:04;;;;;;;;;;;;;;;;;;5061290;28;20403;-85
2021/01/14 09:53:31;;;;;;;;;;;;;;;;;;5061102;28;20403;-84
2021/01/14 09:55:57;;;;;;;;;;;;;;;;;;5064460;28;20404;-86
2021/01/14 09:58:31;;;;;;;;;;;;;;;;;;5077761;28;20461;-85
2021/01/14 10:00:57;;;;;;;;;;;;;;;;;;5069269;28;20455;-86
2021/01/14 10:03:25;;;;;;;;;;;;;;;;;;5062303;28;20394;-85
2021/01/14 10:05:54;;;;;;;;;;;;;;;;;;5058176;28;20764;-85
2021/01/14 10:08:36;;;;;;;;;;;;;;;;;;5059315;28;20388;-86
2021/01/14 10:11:21;;;;;;;;;;;;;;;;;;5048679;28;20382;-88
2021/01/14 10:13:47;;;;;;;;;;;;;;;;;;5039524;28;20414;-84
2021/01/14 10:16:19;;;;;;;;;;;;;;;;;;5051628;28;20407;-87
2021/01/14 10:18:46;;;;;;;;;;;;;;;;;;5062702;28;20388;-89
2021/01/14 10:21:13;;;;;;;;;;;;;;;;;;5067360;28;20402;-89
2021/01/14 10:23:40;;;;;;;;;;;;;;;;;;5061107;28;20399;-90
2021/01/14 10:26:06;;;;;;;;;;;;;;;;;;5060693;28;20415;-88
2021/01/14 10:28:39;;;;;;;;;;;;;;;;;;5060121;28;20404;-88
2021/01/14 10:31:06;;;;;;;;;;;;;;;;;;5059263;28;20517;-89
2021/01/14 10:33:32;;;;;;;;;;;;;;;;;;5059826;28;20414;-87
2021/01/14 10:35:59;;;;;;;;;;;;;;;;;;5053900;28;20840;-88
2021/01/14 10:38:35;;;;;;;;;;;;;;;;;;5041337;28;20387;-87
2021/01/14 10:41:02;;;;;;;;;;;;;;;;;;5059101;28;20380;-90
2021/01/14 10:43:29;;;;;;;;;;;;;;;;;;5059053;28;20582;-90
2021/01/14 10:45:55;;;;;;;;;;;;;;;;;;5059104;28;20391;-87
2021/01/14 10:50:58;;;;;;;;;;;;;;;;;;5062825;28;20375;-87
2021/01/14 11:01:39;;;;;;;;;;;;;;;;;;5068421;28;20399;-89
2021/01/14 11:07:01;;;;;;;;;;;;;;;;;;5058885;28;20412;-90
2021/01/14 11:09:28;;;;;;;;;;;;;;;;;;5062536;28;20415;-88
2021/01/14 11:12:00;;;;;;;;;;;;;;;;;;5062044;28;20387;-90
2021/01/14 11:14:26;;;;;;;;;;;;;;;;;;5061308;28;20775;-90
2021/01/14 11:16:53;;;;;;;;;;;;;;;;;;5060633;28;20762;-89
2021/01/14 11:24:55;;;;;;;;;;;;;;;;;;5022628;28;20378;-90
2021/01/14 11:27:22;;;;;;;;;;;;;;;;;;5030626;28;20451;-90
2021/01/14 11:29:50;;;;;;;;;;;;;;;;;;5027375;28;20404;-89
2021/01/14 11:32:24;;;;;;;;;;;;;;;;;;5027657;28;20393;-90
2021/01/14 11:35:01;;;;;;;;;;;;;;;;;;5030262;28;20808;-89
2021/01/14 12:06:23;;;;;;;;;;;;;;;;;;5036911;28;20393;-88
2021/01/14 12:08:49;;;;;;;;;;;;;;;;;;5038398;28;20414;-88
2021/01/14 12:11:16;;;;;;;;;;;;;;;;;;5039290;28;20452;-88
2021/01/14 12:13:44;;;;;;;;;;;;;;;;;;5038971;28;20406;-87
2021/01/14 12:18:45;;;;;;;;;;;;;;;;;;5021458;28;20452;-87
2021/01/14 12:21:13;;;;;;;;;;;;;;;;;;5020430;28;20834;-86
2021/01/14 12:23:39;;;;;;;;;;;;;;;;;;5035597;28;20379;-88
2021/01/14 12:26:06;;;;;;;;;;;;;;;;;;5039210;28;20419;-87
2021/01/14 12:28:32;;;;;;;;;;;;;;;;;;5037804;28;20456;-88
2021/01/14 12:30:59;;;;;;;;;;;;;;;;;;5037762;28;20390;-88
2021/01/14 12:33:25;;;;;;;;;;;;;;;;;;5038111;28;20417;-86
2021/01/14 12:35:52;;;;;;;;;;;;;;;;;;5024161;28;20390;-88
2021/01/14 12:38:18;;;;;;;;;;;;;;;;;;5036658;28;20390;-88
2021/01/14 12:40:45;;;;;;;;;;;;;;;;;;5035608;28;20396;-88
2021/01/14 12:43:11;;;;;;;;;;;;;;;;;;5038699;28;20460;-88
2021/01/14 12:45:37;;;;;;;;;;;;;;;;;;5040029;28;20367;-87
2021/01/14 12:48:04;;;;;;;;;;;;;;;;;;5038615;28;20410;-87
2021/01/14 12:50:31;;;;;;;;;;;;;;;;;;5038215;28;20405;-88
2021/01/14 12:52:57;;;;;;;;;;;;;;;;;;5028840;28;20402;-88
2021/01/14 12:55:24;;;;;;;;;;;;;;;;;;5037933;28;20802;-88
2021/01/14 12:57:50;;;;;;;;;;;;;;;;;;5029561;28;20410;-88
2021/01/14 13:00:16;;;;;;;;;;;;;;;;;;5046821;28;20389;-84
2021/01/14 13:02:43;;;;;;;;;;;;;;;;;;5049752;28;20389;-85
2021/01/14 13:05:10;;;;;;;;;;;;;;;;;;5068315;28;20398;-86
2021/01/14 13:07:36;;;;;;;;;;;;;;;;;;5057398;28;20794;-87
2021/01/14 13:10:03;;;;;;;;;;;;;;;;;;5060279;28;20451;-87
2021/01/14 13:12:29;;;;;;;;;;;;;;;;;;5061203;28;20415;-87
2021/01/14 13:14:58;;;;;;;;;;;;;;;;;;5065342;28;20392;-86
2021/01/14 13:17:24;;;;;;;;;;;;;;;;;;5056716;28;20399;-90
2021/01/14 13:19:54;;;;;;;;;;;;;;;;;;5061289;28;20380;-88
2021/01/14 13:22:21;;;;;;;;;;;;;;;;;;5059433;28;20391;-90
2021/01/14 13:24:47;;;;;;;;;;;;;;;;;;5061220;28;20874;-86
2021/01/14 13:27:16;;;;;;;;;;;;;;;;;;5045782;28;20468;-86
2021/01/14 13:29:42;;;;;;;;;;;;;;;;;;5051613;28;20387;-86
2021/01/14 13:32:08;;;;;;;;;;;;;;;;;;5061689;28;20384;-86
2021/01/14 13:34:35;;;;;;;;;;;;;;;;;;5062580;28;20778;-86
2021/01/14 13:37:01;;;;;;;;;;;;;;;;;;5060954;28;20399;-86
2021/01/14 13:39:28;;;;;;;;;;;;;;;;;;5060713;28;20392;-84
2021/01/14 13:41:55;;;;;;;;;;;;;;;;;;5055635;28;20388;-87
2021/01/14 13:44:23;;;;;;;;;;;;;;;;;;5059234;28;20768;-86
2021/01/14 13:46:50;;;;;;;;;;;;;;;;;;5051369;28;20453;-86
2021/01/14 13:49:18;;;;;;;;;;;;;;;;;;5060122;28;20391;-86
2021/01/14 13:51:47;;;;;;;;;;;;;;;;;;5056755;28;20783;-85
2021/01/14 13:54:13;;;;;;;;;;;;;;;;;;5059150;28;20392;-86
2021/01/14 13:56:40;;;;;;;;;;;;;;;;;;5054222;28;20403;-87
2021/01/14 13:59:06;;;;;;;;;;;;;;;;;;5060989;28;20388;-86
2021/01/14 14:01:33;;;;;;;;;;;;;;;;;;5053840;28;20398;-86
2021/01/14 14:03:59;;;;;;;;;;;;;;;;;;5060948;28;20380;-84
2021/01/14 14:06:25;;;;;;;;;;;;;;;;;;5060742;28;20412;-85
2021/01/14 14:08:52;;;;;;;;;;;;;;;;;;5060012;28;20856;-86
2021/01/14 14:11:19;;;;;;;;;;;;;;;;;;5059747;28;20384;-89
2021/01/14 14:13:52;;;;;;;;;;;;;;;;;;5041467;28;20434;-89
2021/01/14 14:16:25;;;;;;;;;;;;;;;;;;5041489;28;20913;-89
2021/01/14 14:18:53;;;;;;;;;;;;;;;;;;5041788;28;20387;-88
2021/01/14 14:21:20;;;;;;;;;;;;;;;;;;5045329;28;20389;-87
2021/01/14 14:23:46;;;;;;;;;;;;;;;;;;5057874;28;20468;-87
2021/01/14 14:26:12;;;;;;;;;;;;;;;;;;5059537;28;20407;-88
2021/01/14 14:28:39;;;;;;;;;;;;;;;;;;5058893;28;20388;-87
2021/01/14 14:31:05;;;;;;;;;;;;;;;;;;5058992;28;20741;-86
2021/01/14 14:33:32;;;;;;;;;;;;;;;;;;5062504;28;20411;-86
2021/01/14 14:36:00;;;;;;;;;;;;;;;;;;5059882;28;20446;-86
2021/01/14 14:38:26;;;;;;;;;;;;;;;;;;5059408;28;20399;-88
2021/01/14 14:40:55;;;;;;;;;;;;;;;;;;5058626;28;20384;-88
2021/01/14 14:43:23;;;;;;;;;;;;;;;;;;5060416;28;20384;-87
2021/01/14 14:45:51;;;;;;;;;;;;;;;;;;5060679;28;20446;-88
2021/01/14 14:48:18;;;;;;;;;;;;;;;;;;5064366;28;20473;-89
2021/01/14 14:50:44;;;;;;;;;;;;;;;;;;5067288;28;20390;-88
2021/01/14 14:53:18;;;;;;;;;;;;;;;;;;5063982;28;20408;-89
2021/01/14 14:55:46;;;;;;;;;;;;;;;;;;5054379;28;20469;-87
2021/01/14 14:58:14;;;;;;;;;;;;;;;;;;5058309;28;20479;-88
2021/01/14 15:00:40;;;;;;;;;;;;;;;;;;5059404;28;20881;-88
2021/01/14 15:03:07;;;;;;;;;;;;;;;;;;5044497;28;20395;-89
2021/01/14 15:05:33;;;;;;;;;;;;;;;;;;5058908;28;20844;-87
2021/01/14 15:07:59;;;;;;;;;;;;;;;;;;5058235;28;20408;-88
2021/01/14 15:10:26;;;;;;;;;;;;;;;;;;5058564;28;20384;-86
2021/01/14 15:12:52;;;;;;;;;;;;;;;;;;5056621;28;20400;-88
2021/01/14 15:15:19;;;;;;;;;;;;;;;;;;5058262;28;20391;-86
2021/01/14 15:17:45;;;;;;;;;;;;;;;;;;5039437;28;20411;-88
2021/01/14 15:20:11;;;;;;;;;;;;;;;;;;5050488;28;20842;-88
2021/01/14 15:22:38;;;;;;;;;;;;;;;;;;5059246;28;20368;-85
2021/01/14 15:25:04;;;;;;;;;;;;;;;;;;5059956;28;20795;-86
2021/01/14 15:27:33;;;;;;;;;;;;;;;;;;5059431;28;20404;-86
2021/01/14 15:30:00;;;;;;;;;;;;;;;;;;5059586;28;20729;-85
2021/01/14 15:32:26;;;;;;;;;;;;;;;;;;5060066;28;20376;-84
2021/01/14 15:34:55;;;;;;;;;;;;;;;;;;5057999;28;20751;-87
2021/01/14 15:37:22;;;;;;;;;;;;;;;;;;5052527;28;20412;-85
2021/01/14 15:39:48;;;;;;;;;;;;;;;;;;5043684;28;20782;-83
2021/01/14 15:42:15;;;;;;;;;;;;;;;;;;5058662;28;20409;-85
2021/01/14 15:44:41;;;;;;;;;;;;;;;;;;5052831;28;20393;-85
2021/01/14 15:47:08;;;;;;;;;;;;;;;;;;5044699;28;20410;-85
2021/01/14 15:49:34;;;;;;;;;;;;;;;;;;5057067;28;20368;-86
2021/01/14 15:52:03;;;;;;;;;;;;;;;;;;5051507;28;20379;-84
2021/01/14 15:54:30;;;;;;;;;;;;;;;;;;5061175;28;20500;-85
2021/01/14 15:56:56;;;;;;;;;;;;;;;;;;5052690;28;20408;-85
2021/01/14 15:59:23;;;;;;;;;;;;;;;;;;5057589;28;20438;-85
2021/01/14 16:01:49;;;;;;;;;;;;;;;;;;5056684;28;20521;-85
2021/01/14 16:04:16;;;;;;;;;;;;;;;;;;5055465;28;20403;-85
2021/01/14 16:06:42;;;;;;;;;;;;;;;;;;5058617;28;20415;-84
2021/01/14 16:09:08;;;;;;;;;;;;;;;;;;5058327;28;20380;-86
2021/01/14 16:11:35;;;;;;;;;;;;;;;;;;5045341;28;20380;-85
2021/01/14 16:14:04;;;;;;;;;;;;;;;;;;5057126;28;20446;-85
2021/01/14 16:16:31;;;;;;;;;;;;;;;;;;5054896;28;20934;-85
2021/01/14 16:18:57;;;;;;;;;;;;;;;;;;5057441;28;20844;-85
2021/01/14 16:21:24;;;;;;;;;;;;;;;;;;5048739;28;20378;-84
2021/01/14 16:23:51;;;;;;;;;;;;;;;;;;5052121;28;20393;-85
2021/01/14 16:26:17;;;;;;;;;;;;;;;;;;5056030;28;20415;-83
2021/01/14 16:28:44;;;;;;;;;;;;;;;;;;5064300;28;20403;-84
2021/01/14 16:31:10;;;;;;;;;;;;;;;;;;5059592;28;20411;-84
2021/01/14 16:33:37;;;;;;;;;;;;;;;;;;5063261;28;20404;-85
2021/01/14 16:36:04;;;;;;;;;;;;;;;;;;5053726;28;20476;-83
2021/01/14 16:38:30;;;;;;;;;;;;;;;;;;5060109;28;20525;-84
2021/01/14 16:40:57;;;;;;;;;;;;;;;;;;5058048;28;20389;-84
2021/01/14 16:43:24;;;;;;;;;;;;;;;;;;5058735;28;20522;-83
2021/01/14 16:45:50;;;;;;;;;;;;;;;;;;5052685;28;20388;-83
2021/01/14 16:48:17;;;;;;;;;;;;;;;;;;5071217;28;20373;-81
2021/01/14 16:50:44;;;;;;;;;;;;;;;;;;5074959;28;20388;-83
2021/01/14 16:53:12;;;;;;;;;;;;;;;;;;5047293;28;20810;-81
2021/01/14 16:55:39;;;;;;;;;;;;;;;;;;5052151;28;20382;-82
2021/01/14 16:58:06;;;;;;;;;;;;;;;;;;5058255;28;20400;-84
2021/01/14 17:00:33;;;;;;;;;;;;;;;;;;5063016;28;20837;-83
2021/01/14 17:02:59;;;;;;;;;;;;;;;;;;5057165;28;20970;-82
2021/01/14 17:05:26;;;;;;;;;;;;;;;;;;5064290;28;20441;-84
2021/01/14 17:07:53;;;;;;;;;;;;;;;;;;5063564;28;20407;-85
2021/01/14 17:10:19;;;;;;;;;;;;;;;;;;5064954;28;20398;-83
2021/01/14 17:12:46;;;;;;;;;;;;;;;;;;5065963;28;20557;-84
2021/01/14 17:15:12;;;;;;;;;;;;;;;;;;5065184;28;20400;-83
2021/01/14 17:17:38;;;;;;;;;;;;;;;;;;5055701;28;20407;-83
2021/01/14 17:20:05;;;;;;;;;;;;;;;;;;5058980;28;20403;-84
2021/01/14 17:22:32;;;;;;;;;;;;;;;;;;5063886;28;20401;-83
2021/01/14 17:24:59;;;;;;;;;;;;;;;;;;5064344;28;21025;-81
2021/01/14 17:27:25;;;;;;;;;;;;;;;;;;5047552;28;20408;-82
2021/01/14 17:29:51;;;;;;;;;;;;;;;;;;5061975;28;20421;-83
2021/01/14 17:32:18;;;;;;;;;;;;;;;;;;5063447;28;20402;-83
2021/01/14 17:34:44;;;;;;;;;;;;;;;;;;5063221;28;20434;-83
2021/01/14 17:37:11;;;;;;;;;;;;;;;;;;5063342;28;20411;-83
2021/01/14 17:39:37;;;;;;;;;;;;;;;;;;5064927;28;20385;-83
2021/01/14 17:42:03;;;;;;;;;;;;;;;;;;5058146;28;20399;-82
2021/01/14 17:44:30;;;;;;;;;;;;;;;;;;5060041;28;20376;-83
2021/01/14 17:46:56;;;;;;;;;;;;;;;;;;5046324;28;20410;-83
2021/01/14 17:49:23;;;;;;;;;;;;;;;;;;5061836;28;20394;-82
2021/01/14 17:51:50;;;;;;;;;;;;;;;;;;5061034;28;20388;-84